sensor_id;sensor_type;location;lat;lon;timestamp;pressure;altitude;pressure_sealevel;temperature;humidity
40460;BME280;26164;51.138;16.952;2023-11-21T00:01:33;74037.53;;;-146.39;34.44
40460;BME280;26164;51.138;16.952;2023-11-21T00:03:58;73996.75;;;-146.39;34.33
40460;BME280;26164;51.138;16.952;2023-11-21T00:06:25;74098.75;;;-146.39;35.16
40460;BME280;26164;51.138;16.952;2023-11-21T00:08:50;74021.22;;;-146.39;34.19
40460;BME280;26164;51.138;16.952;2023-11-21T00:11:16;74062.03;;;-146.39;34.63
40460;BME280;26164;51.138;16.952;2023-11-21T00:13:42;74094.66;;;-146.39;35.09
40460;BME280;26164;51.138;16.952;2023-11-21T00:16:10;74017.13;;;-146.39;34.34
40460;BME280;26164;51.138;16.952;2023-11-21T00:18:38;74192.59;;;-146.39;36.02
40460;BME280;26164;51.138;16.952;2023-11-21T00:21:05;74127.31;;;-146.39;35.37
40460;BME280;26164;51.138;16.952;2023-11-21T00:23:31;74074.25;;;-146.39;34.65
40460;BME280;26164;51.138;16.952;2023-11-21T00:25:57;74070.19;;;-146.39;34.72
40460;BME280;26164;51.138;16.952;2023-11-21T00:28:23;73731.53;;;-146.39;31.60
40460;BME280;26164;51.138;16.952;2023-11-21T00:30:49;73641.75;;;-146.39;31.07
40460;BME280;26164;51.138;16.952;2023-11-21T00:33:15;73564.25;;;-146.39;30.67
40460;BME280;26164;51.138;16.952;2023-11-21T00:35:41;73833.53;;;-146.39;32.24
40460;BME280;26164;51.138;16.952;2023-11-21T00:38:06;72587.22;;;-146.39;25.48
40460;BME280;26164;51.138;16.952;2023-11-21T00:40:34;72935.97;;;-146.39;26.56
40460;BME280;26164;51.138;16.952;2023-11-21T00:43:00;73078.75;;;-146.39;26.89
40460;BME280;26164;51.138;16.952;2023-11-21T00:45:26;73192.97;;;-146.39;27.53
40460;BME280;26164;51.138;16.952;2023-11-21T00:47:52;73370.44;;;-146.39;28.53
40460;BME280;26164;51.138;16.952;2023-11-21T00:50:18;73339.84;;;-146.39;28.79
40460;BME280;26164;51.138;16.952;2023-11-21T00:52:44;73366.38;;;-146.39;28.71
40460;BME280;26164;51.138;16.952;2023-11-21T00:55:10;73447.97;;;-146.39;29.12
40460;BME280;26164;51.138;16.952;2023-11-21T00:57:37;73396.97;;;-146.39;29.22
40460;BME280;26164;51.138;16.952;2023-11-21T01:00:05;73319.44;;;-146.39;28.79
40460;BME280;26164;51.138;16.952;2023-11-21T01:02:39;73588.72;;;-146.39;29.92
40460;BME280;26164;51.138;16.952;2023-11-21T01:05:05;73531.59;;;-146.39;29.95
40460;BME280;26164;51.138;16.952;2023-11-21T01:07:33;73405.13;;;-146.39;29.10
40460;BME280;26164;51.138;16.952;2023-11-21T01:10:00;73711.13;;;-146.39;30.53
40460;BME280;26164;51.138;16.952;2023-11-21T01:12:26;73702.97;;;-146.39;30.80
40460;BME280;26164;51.138;16.952;2023-11-21T01:14:53;73727.44;;;-146.39;30.68
40460;BME280;26164;51.138;16.952;2023-11-21T01:17:20;73564.25;;;-146.39;30.09
40460;BME280;26164;51.138;16.952;2023-11-21T01:19:48;73670.31;;;-146.39;30.88
40460;BME280;26164;51.138;16.952;2023-11-21T01:22:14;73743.75;;;-146.39;31.36
40460;BME280;26164;51.138;16.952;2023-11-21T01:24:42;73723.34;;;-146.39;31.68
40460;BME280;26164;51.138;16.952;2023-11-21T01:27:08;73713.16;;;-146.39;31.14
40460;BME280;26164;51.138;16.952;2023-11-21T01:29:34;73756.00;;;-146.39;31.53
40460;BME280;26164;51.138;16.952;2023-11-21T01:32:02;73501.00;;;-146.39;30.28
40460;BME280;26164;51.138;16.952;2023-11-21T01:34:29;73637.69;;;-146.39;30.48
40460;BME280;26164;51.138;16.952;2023-11-21T01:36:56;73545.88;;;-146.39;29.74
40460;BME280;26164;51.138;16.952;2023-11-21T01:39:23;73686.63;;;-146.39;30.80
40460;BME280;26164;51.138;16.952;2023-11-21T01:41:50;73637.69;;;-146.39;30.87
40460;BME280;26164;51.138;16.952;2023-11-21T01:44:18;73658.06;;;-146.39;30.98
40460;BME280;26164;51.138;16.952;2023-11-21T01:46:45;73472.44;;;-146.39;29.40
40460;BME280;26164;51.138;16.952;2023-11-21T01:49:12;73480.59;;;-146.39;29.50
40460;BME280;26164;51.138;16.952;2023-11-21T01:51:41;73486.72;;;-146.39;29.56
40460;BME280;26164;51.138;16.952;2023-11-21T01:54:07;73521.41;;;-146.39;29.80
40460;BME280;26164;51.138;16.952;2023-11-21T01:56:33;73523.44;;;-146.39;29.74
40460;BME280;26164;51.138;16.952;2023-11-21T01:59:00;73523.44;;;-146.39;29.69
40460;BME280;26164;51.138;16.952;2023-11-21T02:01:26;73441.84;;;-146.39;29.06
40460;BME280;26164;51.138;16.952;2023-11-21T02:03:53;73425.53;;;-146.39;28.93
40460;BME280;26164;51.138;16.952;2023-11-21T02:06:19;73441.84;;;-146.39;29.10
40460;BME280;26164;51.138;16.952;2023-11-21T02:08:45;73580.56;;;-146.39;29.98
40460;BME280;26164;51.138;16.952;2023-11-21T02:11:11;73678.47;;;-146.39;30.70
40460;BME280;26164;51.138;16.952;2023-11-21T02:13:40;73694.81;;;-146.39;30.72
40460;BME280;26164;51.138;16.952;2023-11-21T02:16:11;73739.69;;;-146.39;31.60
40460;BME280;26164;51.138;16.952;2023-11-21T02:18:39;73654.00;;;-146.39;30.60
40460;BME280;26164;51.138;16.952;2023-11-21T02:21:05;73637.69;;;-146.39;30.53
40460;BME280;26164;51.138;16.952;2023-11-21T02:23:31;73596.88;;;-146.39;29.93
40460;BME280;26164;51.138;16.952;2023-11-21T02:25:57;73715.19;;;-146.39;31.18
40460;BME280;26164;51.138;16.952;2023-11-21T02:28:24;73547.91;;;-146.39;29.95
40460;BME280;26164;51.138;16.952;2023-11-21T02:30:52;73356.16;;;-146.39;28.98
40460;BME280;26164;51.138;16.952;2023-11-21T02:33:22;73611.16;;;-146.39;30.18
40460;BME280;26164;51.138;16.952;2023-11-21T02:35:48;73621.34;;;-146.39;30.36
40460;BME280;26164;51.138;16.952;2023-11-21T02:38:14;73600.97;;;-146.39;30.27
40460;BME280;26164;51.138;16.952;2023-11-21T02:40:42;73682.56;;;-146.39;30.85
40460;BME280;26164;51.138;16.952;2023-11-21T02:43:08;73584.63;;;-146.39;29.99
40460;BME280;26164;51.138;16.952;2023-11-21T02:45:34;73666.25;;;-146.39;30.68
40460;BME280;26164;51.138;16.952;2023-11-21T02:48:00;73882.50;;;-146.39;32.26
40460;BME280;26164;51.138;16.952;2023-11-21T02:50:26;73743.75;;;-146.39;31.60
40460;BME280;26164;51.138;16.952;2023-11-21T02:52:52;73858.00;;;-146.39;32.06
40460;BME280;26164;51.138;16.952;2023-11-21T02:55:19;73715.19;;;-146.39;31.14
40460;BME280;26164;51.138;16.952;2023-11-21T02:57:46;73768.25;;;-146.39;31.73
40460;BME280;26164;51.138;16.952;2023-11-21T03:00:12;73760.06;;;-146.39;31.53
40460;BME280;26164;51.138;16.952;2023-11-21T03:02:41;73600.97;;;-146.39;31.23
40460;BME280;26164;51.138;16.952;2023-11-21T03:05:07;73598.91;;;-146.39;30.33
40460;BME280;26164;51.138;16.952;2023-11-21T03:07:36;73421.44;;;-146.39;29.46
40460;BME280;26164;51.138;16.952;2023-11-21T03:10:02;73490.81;;;-146.39;29.51
40460;BME280;26164;51.138;16.952;2023-11-21T03:12:30;73503.03;;;-146.39;29.19
40460;BME280;26164;51.138;16.952;2023-11-21T03:14:56;73498.97;;;-146.39;29.71
40460;BME280;26164;51.138;16.952;2023-11-21T03:17:22;73456.13;;;-146.39;29.19
40460;BME280;26164;51.138;16.952;2023-11-21T03:19:47;73613.19;;;-146.39;30.32
40460;BME280;26164;51.138;16.952;2023-11-21T03:22:14;73576.47;;;-146.39;30.13
40460;BME280;26164;51.138;16.952;2023-11-21T03:24:40;73645.84;;;-146.39;30.45
40460;BME280;26164;51.138;16.952;2023-11-21T03:27:06;73743.75;;;-146.39;31.13
40460;BME280;26164;51.138;16.952;2023-11-21T03:29:32;73731.53;;;-146.39;31.09
40460;BME280;26164;51.138;16.952;2023-11-21T03:31:58;73727.44;;;-146.39;32.23
40460;BME280;26164;51.138;16.952;2023-11-21T03:34:26;73686.63;;;-146.39;31.54
40460;BME280;26164;51.138;16.952;2023-11-21T03:36:54;73690.72;;;-146.39;30.63
40460;BME280;26164;51.138;16.952;2023-11-21T03:39:20;73792.72;;;-146.39;31.45
40460;BME280;26164;51.138;16.952;2023-11-21T03:41:46;73862.09;;;-146.39;32.47
40460;BME280;26164;51.138;16.952;2023-11-21T03:44:13;73786.59;;;-146.39;32.38
40460;BME280;26164;51.138;16.952;2023-11-21T03:46:39;73580.56;;;-146.39;30.45
40460;BME280;26164;51.138;16.952;2023-11-21T03:49:05;73523.44;;;-146.39;29.57
40460;BME280;26164;51.138;16.952;2023-11-21T03:51:31;73535.69;;;-146.39;30.10
40460;BME280;26164;51.138;16.952;2023-11-21T03:53:56;73821.28;;;-146.39;31.64
40460;BME280;26164;51.138;16.952;2023-11-21T03:56:23;73996.75;;;-146.39;34.41
40460;BME280;26164;51.138;16.952;2023-11-21T03:58:49;73827.41;;;-146.39;31.96
40460;BME280;26164;51.138;16.952;2023-11-21T04:01:22;73621.34;;;-146.39;30.91
40460;BME280;26164;51.138;16.952;2023-11-21T04:03:49;73876.38;;;-146.39;32.65
40460;BME280;26164;51.138;16.952;2023-11-21T04:06:16;73772.31;;;-146.39;31.64
40460;BME280;26164;51.138;16.952;2023-11-21T04:08:43;73684.59;;;-146.39;31.02
40460;BME280;26164;51.138;16.952;2023-11-21T04:11:10;73817.19;;;-146.39;31.83
40460;BME280;26164;51.138;16.952;2023-11-21T04:13:39;73858.00;;;-146.39;32.34
40460;BME280;26164;51.138;16.952;2023-11-21T04:16:07;73815.16;;;-146.39;32.20
40460;BME280;26164;51.138;16.952;2023-11-21T04:18:35;73829.44;;;-146.39;32.64
40460;BME280;26164;51.138;16.952;2023-11-21T04:21:01;73739.69;;;-146.39;31.27
40460;BME280;26164;51.138;16.952;2023-11-21T04:23:29;73911.03;;;-146.39;32.66
40460;BME280;26164;51.138;16.952;2023-11-21T04:25:56;73792.72;;;-146.39;31.31
40460;BME280;26164;51.138;16.952;2023-11-21T04:28:23;73743.75;;;-146.39;31.38
40460;BME280;26164;51.138;16.952;2023-11-21T04:30:50;73827.41;;;-146.39;31.56
40460;BME280;26164;51.138;16.952;2023-11-21T04:33:16;73904.94;;;-146.39;32.38
40460;BME280;26164;51.138;16.952;2023-11-21T04:35:42;73821.28;;;-146.39;31.78
40460;BME280;26164;51.138;16.952;2023-11-21T04:38:07;73878.41;;;-146.39;31.87
40460;BME280;26164;51.138;16.952;2023-11-21T04:40:33;73968.16;;;-146.39;32.70
40460;BME280;26164;51.138;16.952;2023-11-21T04:42:59;73727.44;;;-146.39;31.39
40460;BME280;26164;51.138;16.952;2023-11-21T04:45:25;73698.88;;;-146.39;30.71
40460;BME280;26164;51.138;16.952;2023-11-21T04:47:51;73731.53;;;-146.39;30.80
40460;BME280;26164;51.138;16.952;2023-11-21T04:50:18;73800.88;;;-146.39;31.32
40460;BME280;26164;51.138;16.952;2023-11-21T04:52:44;73878.41;;;-146.39;31.83
40460;BME280;26164;51.138;16.952;2023-11-21T04:55:10;73776.41;;;-146.39;31.56
40460;BME280;26164;51.138;16.952;2023-11-21T04:57:36;73947.78;;;-146.39;33.48
40460;BME280;26164;51.138;16.952;2023-11-21T05:00:03;73829.44;;;-146.39;32.27
40460;BME280;26164;51.138;16.952;2023-11-21T05:02:32;73829.44;;;-146.39;31.64
40460;BME280;26164;51.138;16.952;2023-11-21T05:05:03;73525.47;;;-146.39;30.18
40460;BME280;26164;51.138;16.952;2023-11-21T05:07:32;73633.59;;;-146.39;30.35
40460;BME280;26164;51.138;16.952;2023-11-21T05:10:05;73894.72;;;-146.39;32.42
40460;BME280;26164;51.138;16.952;2023-11-21T05:12:36;73804.97;;;-146.39;31.38
40460;BME280;26164;51.138;16.952;2023-11-21T05:15:05;73800.88;;;-146.39;31.58
40460;BME280;26164;51.138;16.952;2023-11-21T05:17:38;73649.91;;;-146.39;30.29
40460;BME280;26164;51.138;16.952;2023-11-21T05:20:09;73833.53;;;-146.39;31.68
40460;BME280;26164;51.138;16.952;2023-11-21T05:22:36;73921.25;;;-146.39;32.36
40460;BME280;26164;51.138;16.952;2023-11-21T05:25:03;73821.28;;;-146.39;31.17
40460;BME280;26164;51.138;16.952;2023-11-21T05:27:30;73919.22;;;-146.39;32.59
40460;BME280;26164;51.138;16.952;2023-11-21T05:29:59;73945.72;;;-146.39;32.63
40460;BME280;26164;51.138;16.952;2023-11-21T05:32:25;73817.19;;;-146.39;31.33
40460;BME280;26164;51.138;16.952;2023-11-21T05:34:52;73564.25;;;-146.39;29.60
40460;BME280;26164;51.138;16.952;2023-11-21T05:37:17;73774.38;;;-146.39;31.31
40460;BME280;26164;51.138;16.952;2023-11-21T05:39:43;73056.31;;;-146.39;27.98
40460;BME280;26164;51.138;16.952;2023-11-21T05:42:09;73074.69;;;-146.39;26.45
40460;BME280;26164;51.138;16.952;2023-11-21T05:44:37;72874.78;;;-146.39;25.64
40460;BME280;26164;51.138;16.952;2023-11-21T05:47:03;73019.59;;;-146.39;26.24
40460;BME280;26164;51.138;16.952;2023-11-21T05:49:29;73274.56;;;-146.39;27.52
40460;BME280;26164;51.138;16.952;2023-11-21T05:51:55;73356.16;;;-146.39;28.20
40460;BME280;26164;51.138;16.952;2023-11-21T05:54:22;73331.69;;;-146.39;28.16
40460;BME280;26164;51.138;16.952;2023-11-21T05:56:50;73294.97;;;-146.39;27.54
40460;BME280;26164;51.138;16.952;2023-11-21T05:59:17;73366.38;;;-146.39;27.80
40460;BME280;26164;51.138;16.952;2023-11-21T06:01:42;73464.28;;;-146.39;28.49
40460;BME280;26164;51.138;16.952;2023-11-21T06:04:09;73543.84;;;-146.39;28.73
40460;BME280;26164;51.138;16.952;2023-11-21T06:06:35;73458.16;;;-146.39;28.68
40460;BME280;26164;51.138;16.952;2023-11-21T06:09:02;73535.69;;;-146.39;29.42
40460;BME280;26164;51.138;16.952;2023-11-21T06:11:28;73466.31;;;-146.39;28.61
40460;BME280;26164;51.138;16.952;2023-11-21T06:13:54;73554.03;;;-146.39;29.14
40460;BME280;26164;51.138;16.952;2023-11-21T06:16:21;73596.88;;;-146.39;29.71
40460;BME280;26164;51.138;16.952;2023-11-21T06:18:48;73564.25;;;-146.39;29.16
40460;BME280;26164;51.138;16.952;2023-11-21T06:21:14;73690.72;;;-146.39;29.72
40460;BME280;26164;51.138;16.952;2023-11-21T06:23:43;73590.75;;;-146.39;29.60
40460;BME280;26164;51.138;16.952;2023-11-21T06:26:09;73690.72;;;-146.39;30.05
40460;BME280;26164;51.138;16.952;2023-11-21T06:28:36;73727.44;;;-146.39;30.01
40460;BME280;26164;51.138;16.952;2023-11-21T06:31:02;73641.75;;;-146.39;29.78
40460;BME280;26164;51.138;16.952;2023-11-21T06:33:32;73625.44;;;-146.39;29.45
40460;BME280;26164;51.138;16.952;2023-11-21T06:35:59;73658.06;;;-146.39;29.82
40460;BME280;26164;51.138;16.952;2023-11-21T06:38:43;73825.38;;;-146.39;30.52
40460;BME280;26164;51.138;16.952;2023-11-21T06:41:29;73756.00;;;-146.39;30.89
40460;BME280;26164;51.138;16.952;2023-11-21T06:43:56;73964.09;;;-146.39;31.88
40460;BME280;26164;51.138;16.952;2023-11-21T06:46:24;73909.00;;;-146.39;31.63
40460;BME280;26164;51.138;16.952;2023-11-21T06:48:52;73898.81;;;-146.39;31.02
40460;BME280;26164;51.138;16.952;2023-11-21T06:51:17;73921.25;;;-146.39;31.71
40460;BME280;26164;51.138;16.952;2023-11-21T06:53:45;74008.97;;;-146.39;32.11
40460;BME280;26164;51.138;16.952;2023-11-21T06:56:17;73711.13;;;-146.39;30.56
40460;BME280;26164;51.138;16.952;2023-11-21T06:58:45;74004.91;;;-146.39;32.42
40460;BME280;26164;51.138;16.952;2023-11-21T07:01:13;73719.28;;;-146.39;30.70
40460;BME280;26164;51.138;16.952;2023-11-21T07:03:40;73770.28;;;-146.39;30.50
40460;BME280;26164;51.138;16.952;2023-11-21T07:06:07;73637.69;;;-146.39;29.71
40460;BME280;26164;51.138;16.952;2023-11-21T07:08:33;73796.81;;;-146.39;30.85
40460;BME280;26164;51.138;16.952;2023-11-21T07:10:59;73749.88;;;-146.39;30.44
40460;BME280;26164;51.138;16.952;2023-11-21T07:13:26;73825.38;;;-146.39;30.60
40460;BME280;26164;51.138;16.952;2023-11-21T07:15:52;74006.94;;;-146.39;31.79
40460;BME280;26164;51.138;16.952;2023-11-21T07:18:18;73980.41;;;-146.39;31.77
40460;BME280;26164;51.138;16.952;2023-11-21T07:20:44;73951.84;;;-146.39;31.63
40460;BME280;26164;51.138;16.952;2023-11-21T07:23:10;73955.94;;;-146.39;31.80
40460;BME280;26164;51.138;16.952;2023-11-21T07:25:36;73960.00;;;-146.39;31.52
40460;BME280;26164;51.138;16.952;2023-11-21T07:28:03;73866.16;;;-146.39;30.84
40460;BME280;26164;51.138;16.952;2023-11-21T07:30:30;73743.75;;;-146.39;30.10
40460;BME280;26164;51.138;16.952;2023-11-21T07:32:57;73694.81;;;-146.39;29.71
40460;BME280;26164;51.138;16.952;2023-11-21T07:35:23;73662.16;;;-146.39;29.28
40460;BME280;26164;51.138;16.952;2023-11-21T07:37:49;73700.91;;;-146.39;29.55
40460;BME280;26164;51.138;16.952;2023-11-21T07:40:16;73552.00;;;-146.39;28.97
40460;BME280;26164;51.138;16.952;2023-11-21T07:42:43;73911.03;;;-146.39;31.25
40460;BME280;26164;51.138;16.952;2023-11-21T07:45:10;73860.03;;;-146.39;30.60
40460;BME280;26164;51.138;16.952;2023-11-21T07:47:37;73845.75;;;-146.39;30.66
40460;BME280;26164;51.138;16.952;2023-11-21T07:50:05;73800.88;;;-146.39;30.57
40460;BME280;26164;51.138;16.952;2023-11-21T07:52:33;73837.59;;;-146.39;30.66
40460;BME280;26164;51.138;16.952;2023-11-21T07:54:59;73741.72;;;-146.39;30.07
40460;BME280;26164;51.138;16.952;2023-11-21T07:57:25;73719.28;;;-146.39;29.61
40460;BME280;26164;51.138;16.952;2023-11-21T07:59:51;73800.88;;;-146.39;30.36
40460;BME280;26164;51.138;16.952;2023-11-21T08:02:21;73849.84;;;-146.39;30.98
40460;BME280;26164;51.138;16.952;2023-11-21T08:04:47;74021.22;;;-146.39;31.64
40460;BME280;26164;51.138;16.952;2023-11-21T08:07:16;73833.53;;;-146.39;30.89
40460;BME280;26164;51.138;16.952;2023-11-21T08:09:42;73813.13;;;-146.39;30.58
40460;BME280;26164;51.138;16.952;2023-11-21T08:12:11;73860.03;;;-146.39;31.24
40460;BME280;26164;51.138;16.952;2023-11-21T08:14:37;73972.25;;;-146.39;31.27
40460;BME280;26164;51.138;16.952;2023-11-21T08:17:05;73776.41;;;-146.39;30.19
40460;BME280;26164;51.138;16.952;2023-11-21T08:19:31;73933.50;;;-146.39;31.17
40460;BME280;26164;51.138;16.952;2023-11-21T08:21:59;73896.78;;;-146.39;30.94
40460;BME280;26164;51.138;16.952;2023-11-21T08:24:24;73743.75;;;-146.39;29.79
40460;BME280;26164;51.138;16.952;2023-11-21T08:26:51;73829.44;;;-146.39;30.35
40460;BME280;26164;51.138;16.952;2023-11-21T08:29:17;73906.97;;;-146.39;30.91
40460;BME280;26164;51.138;16.952;2023-11-21T08:31:46;73849.84;;;-146.39;30.54
40460;BME280;26164;51.138;16.952;2023-11-21T08:34:14;73713.16;;;-146.39;29.75
40460;BME280;26164;51.138;16.952;2023-11-21T08:36:42;73821.28;;;-146.39;30.77
40460;BME280;26164;51.138;16.952;2023-11-21T08:39:08;73796.81;;;-146.39;30.31
40460;BME280;26164;51.138;16.952;2023-11-21T08:41:36;73831.47;;;-146.39;30.73
40460;BME280;26164;51.138;16.952;2023-11-21T08:44:02;73560.16;;;-146.39;28.80
40460;BME280;26164;51.138;16.952;2023-11-21T08:46:34;73564.25;;;-146.39;29.13
40460;BME280;26164;51.138;16.952;2023-11-21T08:49:02;73802.91;;;-146.39;30.10
40460;BME280;26164;51.138;16.952;2023-11-21T08:51:31;73533.63;;;-146.39;28.91
40460;BME280;26164;51.138;16.952;2023-11-21T08:53:57;73862.09;;;-146.39;30.51
40460;BME280;26164;51.138;16.952;2023-11-21T08:56:34;73617.28;;;-146.39;29.29
40460;BME280;26164;51.138;16.952;2023-11-21T08:58:59;73858.00;;;-146.39;30.12
40460;BME280;26164;51.138;16.952;2023-11-21T09:01:30;73902.88;;;-146.39;31.15
40460;BME280;26164;51.138;16.952;2023-11-21T09:03:57;73829.44;;;-146.39;30.37
40460;BME280;26164;51.138;16.952;2023-11-21T09:06:24;73731.53;;;-146.39;30.01
40460;BME280;26164;51.138;16.952;2023-11-21T09:08:50;73707.03;;;-146.39;29.77
40460;BME280;26164;51.138;16.952;2023-11-21T09:11:17;73882.50;;;-146.39;30.68
40460;BME280;26164;51.138;16.952;2023-11-21T09:13:44;73666.25;;;-146.39;29.26
40460;BME280;26164;51.138;16.952;2023-11-21T09:16:10;73809.03;;;-146.39;30.12
40460;BME280;26164;51.138;16.952;2023-11-21T09:18:36;73911.03;;;-146.39;30.60
40460;BME280;26164;51.138;16.952;2023-11-21T09:21:04;73678.47;;;-146.39;29.76
40460;BME280;26164;51.138;16.952;2023-11-21T09:23:30;73764.16;;;-146.39;29.80
40460;BME280;26164;51.138;16.952;2023-11-21T09:26:25;73741.72;;;-146.39;29.82
40460;BME280;26164;51.138;16.952;2023-11-21T09:33:20;73727.44;;;-146.39;30.10
40460;BME280;26164;51.138;16.952;2023-11-21T09:35:58;73674.41;;;-146.39;29.92
40460;BME280;26164;51.138;16.952;2023-11-21T09:38:59;73592.81;;;-146.39;29.19
40460;BME280;26164;51.138;16.952;2023-11-21T09:45:03;73539.75;;;-146.39;28.66
40460;BME280;26164;51.138;16.952;2023-11-21T09:47:39;73511.19;;;-146.39;28.67
40460;BME280;26164;51.138;16.952;2023-11-21T09:50:12;73609.13;;;-146.39;28.79
40460;BME280;26164;51.138;16.952;2023-11-21T09:53:04;73670.31;;;-146.39;29.58
40460;BME280;26164;51.138;16.952;2023-11-21T09:55:39;73688.69;;;-146.39;29.40
40460;BME280;26164;51.138;16.952;2023-11-21T09:58:08;73613.19;;;-146.39;29.03
40460;BME280;26164;51.138;16.952;2023-11-21T10:00:44;73629.53;;;-146.39;29.54
40460;BME280;26164;51.138;16.952;2023-11-21T10:03:11;73656.03;;;-146.39;29.26
40460;BME280;26164;51.138;16.952;2023-11-21T10:05:37;73894.72;;;-146.39;31.01
40460;BME280;26164;51.138;16.952;2023-11-21T10:08:08;73621.34;;;-146.39;29.33
40460;BME280;26164;51.138;16.952;2023-11-21T10:10:38;73768.25;;;-146.39;30.16
40460;BME280;26164;51.138;16.952;2023-11-21T10:13:12;73641.75;;;-146.39;29.74
40460;BME280;26164;51.138;16.952;2023-11-21T10:15:50;73621.34;;;-146.39;29.60
40460;BME280;26164;51.138;16.952;2023-11-21T10:18:22;73678.47;;;-146.39;29.65
40460;BME280;26164;51.138;16.952;2023-11-21T10:20:51;74062.03;;;-146.39;32.15
40460;BME280;26164;51.138;16.952;2023-11-21T10:23:33;73809.03;;;-146.39;30.59
40460;BME280;26164;51.138;16.952;2023-11-21T10:26:01;73641.75;;;-146.39;29.62
40460;BME280;26164;51.138;16.952;2023-11-21T10:28:27;73747.84;;;-146.39;29.69
40460;BME280;26164;51.138;16.952;2023-11-21T10:30:54;73853.94;;;-146.39;30.85
40460;BME280;26164;51.138;16.952;2023-11-21T10:33:27;73796.81;;;-146.39;30.73
40460;BME280;26164;51.138;16.952;2023-11-21T10:35:56;73937.56;;;-146.39;31.30
40460;BME280;26164;51.138;16.952;2023-11-21T10:38:23;74453.75;;;-146.39;35.10
40460;BME280;26164;51.138;16.952;2023-11-21T10:40:52;74359.91;;;-146.39;33.81
40460;BME280;26164;51.138;16.952;2023-11-21T10:43:24;74408.88;;;-146.39;34.78
40460;BME280;26164;51.138;16.952;2023-11-21T10:45:57;74478.25;;;-146.39;35.75
40460;BME280;26164;51.138;16.952;2023-11-21T10:48:25;74670.06;;;-146.39;36.60
40460;BME280;26164;51.138;16.952;2023-11-21T10:50:55;74519.06;;;-146.39;35.61
40460;BME280;26164;51.138;16.952;2023-11-21T10:53:22;74339.50;;;-146.39;33.96
40460;BME280;26164;51.138;16.952;2023-11-21T10:56:01;74135.47;;;-146.39;32.59
40460;BME280;26164;51.138;16.952;2023-11-21T10:58:28;74425.19;;;-146.39;34.53
40460;BME280;26164;51.138;16.952;2023-11-21T11:00:55;74347.66;;;-146.39;33.79
40460;BME280;26164;51.138;16.952;2023-11-21T11:03:28;74363.97;;;-146.39;34.32
40460;BME280;26164;51.138;16.952;2023-11-21T11:05:55;74282.38;;;-146.39;33.28
40460;BME280;26164;51.138;16.952;2023-11-21T11:08:21;74335.41;;;-146.39;33.86
40460;BME280;26164;51.138;16.952;2023-11-21T11:10:52;74484.38;;;-146.39;34.49
40460;BME280;26164;51.138;16.952;2023-11-21T11:13:18;74470.09;;;-146.39;34.55
40460;BME280;26164;51.138;16.952;2023-11-21T11:15:51;74514.97;;;-146.39;35.54
40460;BME280;26164;51.138;16.952;2023-11-21T11:18:22;74523.13;;;-146.39;35.37
40460;BME280;26164;51.138;16.952;2023-11-21T11:20:51;74370.09;;;-146.39;34.25
40460;BME280;26164;51.138;16.952;2023-11-21T11:29:51;74510.91;;;-146.39;35.45
40460;BME280;26164;51.138;16.952;2023-11-21T11:38:08;74580.28;;;-146.39;35.07
40460;BME280;26164;51.138;16.952;2023-11-21T11:40:46;74617.00;;;-146.39;35.20
40460;BME280;26164;51.138;16.952;2023-11-21T11:43:27;74706.78;;;-146.39;36.62
40460;BME280;26164;51.138;16.952;2023-11-21T11:46:07;74798.59;;;-146.39;36.86
40460;BME280;26164;51.138;16.952;2023-11-21T11:48:40;74719.03;;;-146.39;36.11
40460;BME280;26164;51.138;16.952;2023-11-21T11:51:22;74717.00;;;-146.39;36.31
40460;BME280;26164;51.138;16.952;2023-11-21T11:53:52;74743.50;;;-146.39;36.35
40460;BME280;26164;51.138;16.952;2023-11-21T11:56:31;74723.09;;;-146.39;35.66
40460;BME280;26164;51.138;16.952;2023-11-21T11:59:04;74772.09;;;-146.39;36.59
40460;BME280;26164;51.138;16.952;2023-11-21T12:01:36;74719.03;;;-146.39;35.68
40460;BME280;26164;51.138;16.952;2023-11-21T12:06:53;74739.44;;;-146.39;35.99
40460;BME280;26164;51.138;16.952;2023-11-21T12:09:24;74898.59;;;-146.39;37.15
40460;BME280;26164;51.138;16.952;2023-11-21T12:11:54;74947.56;;;-146.39;37.42
40460;BME280;26164;51.138;16.952;2023-11-21T12:14:24;74947.56;;;-146.39;37.37
40460;BME280;26164;51.138;16.952;2023-11-21T12:16:51;74717.00;;;-146.39;34.87
40460;BME280;26164;51.138;16.952;2023-11-21T12:19:17;74900.63;;;-146.39;36.39
40460;BME280;26164;51.138;16.952;2023-11-21T12:21:44;74763.91;;;-146.39;35.02
40460;BME280;26164;51.138;16.952;2023-11-21T12:24:10;74941.44;;;-146.39;36.78
40460;BME280;26164;51.138;16.952;2023-11-21T12:26:44;75061.84;;;-146.39;37.84
40460;BME280;26164;51.138;16.952;2023-11-21T12:29:10;74819.00;;;-146.39;35.42
40460;BME280;26164;51.138;16.952;2023-11-21T12:31:38;75067.97;;;-146.39;37.73
40460;BME280;26164;51.138;16.952;2023-11-21T12:34:04;74951.66;;;-146.39;36.40
40460;BME280;26164;51.138;16.952;2023-11-21T12:36:35;75233.28;;;-146.39;39.01
40460;BME280;26164;51.138;16.952;2023-11-21T12:39:02;75192.47;;;-146.39;38.62
40460;BME280;26164;51.138;16.952;2023-11-21T12:41:45;75088.38;;;-146.39;37.42
40460;BME280;26164;51.138;16.952;2023-11-21T12:44:12;75070.03;;;-146.39;36.76
40460;BME280;26164;51.138;16.952;2023-11-21T12:46:42;75021.03;;;-146.39;36.68
40460;BME280;26164;51.138;16.952;2023-11-21T12:49:11;75012.88;;;-146.39;35.80
40460;BME280;26164;51.138;16.952;2023-11-21T12:51:45;75102.66;;;-146.39;37.46
40460;BME280;26164;51.138;16.952;2023-11-21T12:54:12;75170.00;;;-146.39;37.91
40460;BME280;26164;51.138;16.952;2023-11-21T12:56:39;75021.03;;;-146.39;36.74
40460;BME280;26164;51.138;16.952;2023-11-21T12:59:05;74996.56;;;-146.39;35.65